Cove, Utah
Current Conditions -  °F | °C
As of 1:51 AM on Thursday 23 Oct 2014 (Local Time) from KLGU Reporting Station
Clear Clear  
Wind Chill: 34°   Ceiling: Unl
Heat Index: 34°   Visibility: 10mi
Dew Point: 28°   Wind: 3mph
Humidity: 79%   Direction: 20°NNE
Pressure: 30.18"   Gusts: NA
Location:  41.9637°N, 111.851°W
Report Text: KLGU 230751Z AUTO 02003KT 10SM CLR 01/M02 A3018 RMK AO2 SLP212 T00111022 TSNO
Loading
Personal Weather Stations






























Interactive Weather Map
Tropical Storm Tracking
New forecast layout! Learn more

10-Day Weather Forecast

Advertisements
Track Severe Weather on mobile